Airfield :
LOGIN :

Register | Disclaimer

   EN    FR    IT 

 










Legend :    VFR   Marginal VFR   IFR   Intensive IFR   Very Intensive IFR
Visi :
Ceiling :
>= 8 km
>= 3000ft
5 to 8 km
1000 to 3000 ft
1500m to 5 km
500 to 1000 ft
800 to 1500m
200 to 500 ft
< 800m
< 200 ft
Symbols :   Thunderstorms  Fog  Heavy snow  Heavy precipitations  Wind > 20 kt
SIGMETs :     Misc.  Thunderstorms  Icing  Turbulence  Mountain Waves  Volcanic Ashes






- Airport Elevation : 408 ft
- IATA code : FKB


EDSB - Karlsruhe Baden Baden

CURRENT METAR :
  • 280850Z 21015KT 8000 RADZ FEW007 SCT010 OVC028 07/06 Q1005

EXPIRED METARs :
  • 280820Z 21011KT 9999 -RADZ FEW007 SCT011 OVC029 06/06 Q1006 RERA
  • 280750Z 21008KT 9000 RADZ SCT011 OVC031 06/05 Q1006
  • 280720Z 21008KT 9000 RA FEW029 OVC033 05/05 Q1007
  • 280650Z 23007KT 9999 RA FEW017 BKN029 OVC036 05/04 Q1008
  • 280620Z 22007KT 9999 RA FEW036 OVC047 05/04 Q1008

TAF TAF EDSB
Valid from the 28 at 06:00 until the 29 at 06:00 UTC


280500Z 2806/2906 20008KT 9999 BKN020
TEMPO 2806/2813 4000 RA BKN014
BECMG 2809/2812 22013KT
PROB40
TEMPO 2813/2820 23015G25KT 4000 SHRA BKN012TCU
TEMPO 2903/2906 3000 RA BKN012



MET'MAP, your aeronautical weather chart ! - Copyright ORBIFLY December 2007 - Disclaimer

ORBIFLY MET'MAP TEAM :

Programming & Development : Alexandra Zaïnal
Concept & original design : Baudouin d'Aumeries
Assistance for programming : Marc-Olivier Méhu
Technical & hardware support : Manuel Goepfert

Contact : metmap@orbifly.com




SOURCES & CREDITS :

   NOAA